Time;durP1;ratioP1;P1;durP2;ratioP2;P2;SDS_P1;SDS_P2;PMS_P1;PMS_P2;Temp;Humidity;BMP_temperature;BMP_pressure;BME280_temperature;BME280_humidity;BME280_pressure;Samples;Min_cycle;Max_cycle;Signal;HPM_P1;HPM_P2
2022/02/15 00:00:33;;;;;;;4.40;3.83;;;;;;;8.35;100.00;98608.84;5033024;28;20616;-82
2022/02/15 00:02:59;;;;;;;5.68;3.83;;;;;;;8.45;100.00;98617.19;5032877;28;20197;-82
2022/02/15 00:05:26;;;;;;;4.82;4.22;;;;;;;8.31;100.00;98609.16;5033197;28;20205;-83
2022/02/15 00:07:52;;;;;;;5.80;4.63;;;;;;;8.53;100.00;98617.56;5033093;28;20286;-83
2022/02/15 00:10:19;;;;;;;8.00;5.07;;;;;;;8.43;100.00;98620.94;5032640;28;20638;-83
2022/02/15 00:12:47;;;;;;;4.25;3.85;;;;;;;8.50;100.00;98607.03;5033003;28;20194;-83
2022/02/15 00:15:14;;;;;;;7.30;4.15;;;;;;;8.47;100.00;98617.94;5025226;28;20302;-82
2022/02/15 00:17:42;;;;;;;4.97;3.60;;;;;;;8.35;100.00;98608.00;5032847;28;20190;-83
2022/02/15 00:20:11;;;;;;;5.55;4.00;;;;;;;8.43;100.00;98611.06;5032542;28;20195;-83
2022/02/15 00:22:38;;;;;;;6.57;4.30;;;;;;;8.39;100.00;98608.66;5032502;28;20235;-82
2022/02/15 00:25:06;;;;;;;7.30;4.57;;;;;;;8.48;100.00;98614.31;5032573;28;20191;-82
2022/02/15 00:27:33;;;;;;;4.85;3.85;;;;;;;8.47;100.00;98611.72;5031918;28;20638;-83
2022/02/15 00:30:01;;;;;;;5.72;4.40;;;;;;;8.33;100.00;98610.78;5032280;28;20198;-83
2022/02/15 00:32:28;;;;;;;6.47;4.30;;;;;;;8.32;100.00;98603.69;5032126;28;20187;-82
2022/02/15 00:34:54;;;;;;;7.70;4.65;;;;;;;8.37;100.00;98603.41;5032303;28;20684;-83
2022/02/15 00:37:21;;;;;;;5.82;4.68;;;;;;;8.22;100.00;98599.03;5031401;28;20194;-83
2022/02/15 00:39:48;;;;;;;6.47;4.95;;;;;;;8.29;100.00;98603.03;5032292;28;20191;-83
2022/02/15 00:42:15;;;;;;;5.85;4.60;;;;;;;8.24;100.00;98611.38;5032562;28;20660;-82
2022/02/15 00:44:42;;;;;;;4.88;4.30;;;;;;;8.29;100.00;98609.25;5031950;28;20191;-83
2022/02/15 00:47:10;;;;;;;4.63;4.10;;;;;;;8.23;100.00;98606.09;5031900;28;20200;-83
2022/02/15 00:49:36;;;;;;;6.57;4.25;;;;;;;8.24;100.00;98606.00;5031890;28;20196;-82
2022/02/15 00:52:04;;;;;;;6.85;4.18;;;;;;;8.30;100.00;98610.97;5029802;28;20301;-82
2022/02/15 00:54:30;;;;;;;6.47;4.70;;;;;;;8.34;100.00;98620.56;5032481;28;20216;-82
2022/02/15 00:56:57;;;;;;;6.13;4.50;;;;;;;8.34;100.00;98612.50;5032092;28;20286;-81
2022/02/15 00:59:23;;;;;;;5.55;5.05;;;;;;;8.28;100.00;98614.72;5032380;28;20298;-83
2022/02/15 01:01:50;;;;;;;4.65;4.25;;;;;;;8.32;100.00;98613.53;5031151;28;20277;-83
2022/02/15 01:04:18;;;;;;;5.57;4.65;;;;;;;8.30;100.00;98620.84;5031967;28;20246;-81
2022/02/15 01:06:45;;;;;;;4.75;4.35;;;;;;;8.28;100.00;98620.09;5031641;28;20190;-84
2022/02/15 05:53:06;;;;;;;7.53;4.10;;;;;;;7.34;100.00;98898.19;4424037;28;20248;-83
2022/02/15 05:55:32;;;;;;;5.45;4.32;;;;;;;7.25;100.00;98897.75;5035365;28;20222;-83
2022/02/15 05:57:59;;;;;;;7.90;4.55;;;;;;;7.21;100.00;98904.25;5035160;28;20200;-84
2022/02/15 06:00:25;;;;;;;6.50;3.97;;;;;;;7.30;100.00;98910.88;5034140;28;20236;-84
2022/02/15 06:02:52;;;;;;;8.32;4.43;;;;;;;7.32;100.00;98912.50;5034802;28;20226;-81
2022/02/15 06:05:19;;;;;;;6.78;5.15;;;;;;;7.27;100.00;98917.28;5034439;28;20687;-82
2022/02/15 06:07:45;;;;;;;5.70;4.40;;;;;;;7.17;100.00;98918.75;5034762;28;20612;-83
2022/02/15 06:10:13;;;;;;;7.35;3.83;;;;;;;7.27;100.00;98922.63;5033911;28;20281;-83
2022/02/15 06:12:40;;;;;;;5.25;3.90;;;;;;;7.37;100.00;98931.03;5034547;28;20190;-83
2022/02/15 06:15:08;;;;;;;5.35;3.90;;;;;;;7.46;100.00;98930.53;5033811;28;20225;-83
2022/02/15 06:17:34;;;;;;;5.00;3.83;;;;;;;7.51;100.00;98936.47;5033967;28;20194;-82
2022/02/15 06:20:01;;;;;;;6.93;4.97;;;;;;;7.54;100.00;98940.78;5034131;28;20220;-83
2022/02/15 06:22:28;;;;;;;4.28;3.63;;;;;;;7.62;100.00;98940.34;5033657;28;20198;-84
2022/02/15 06:24:54;;;;;;;6.10;3.80;;;;;;;7.52;100.00;98948.91;5034614;28;20635;-84
2022/02/15 06:27:22;;;;;;;4.45;3.90;;;;;;;7.39;100.00;98945.19;5030888;28;20203;-80
2022/02/15 06:29:49;;;;;;;6.82;4.40;;;;;;;7.29;100.00;98950.19;5032486;28;20277;-79
2022/02/15 06:32:15;;;;;;;5.22;3.75;;;;;;;7.36;100.00;98950.72;5033179;28;20200;-81
2022/02/15 06:34:42;;;;;;;6.38;3.90;;;;;;;7.34;100.00;98949.94;5033182;28;20286;-81
2022/02/15 06:37:10;;;;;;;10.25;4.40;;;;;;;7.38;100.00;98961.34;5032729;28;20282;-81
2022/02/15 06:39:36;;;;;;;7.35;4.35;;;;;;;7.45;100.00;98963.59;5033265;28;20202;-81
2022/02/15 06:42:03;;;;;;;5.95;4.00;;;;;;;7.41;100.00;98977.25;5032904;28;20604;-81
2022/02/15 06:44:34;;;;;;;5.60;3.90;;;;;;;7.35;100.00;98980.25;5032508;28;20674;-79
2022/02/15 06:47:01;;;;;;;4.80;3.70;;;;;;;7.35;100.00;98986.50;5029584;28;20225;-78
2022/02/15 06:49:27;;;;;;;4.50;3.92;;;;;;;7.36;100.00;98987.34;5028922;28;20190;-81
2022/02/15 06:51:54;;;;;;;5.35;3.75;;;;;;;7.30;100.00;98994.78;5030767;28;20281;-77
2022/02/15 06:54:20;;;;;;;5.88;3.90;;;;;;;7.26;100.00;98995.03;5032785;28;20226;-80
2022/02/15 06:56:47;;;;;;;4.70;3.60;;;;;;;7.23;100.00;99012.09;5032948;28;20308;-80
2022/02/15 06:59:14;;;;;;;6.80;4.03;;;;;;;7.27;100.00;99010.13;5033332;28;20281;-79
2022/02/15 07:01:43;;;;;;;8.05;4.57;;;;;;;7.42;100.00;99013.81;5033093;28;20301;-79
2022/02/15 07:04:11;;;;;;;8.85;4.18;;;;;;;7.32;100.00;99008.06;5032395;28;20198;-77
2022/02/15 07:06:37;;;;;;;4.75;3.70;;;;;;;7.40;100.00;99005.84;5033233;28;20189;-81
2022/02/15 07:09:04;;;;;;;10.15;3.83;;;;;;;7.32;100.00;99019.63;5032828;28;20289;-87
2022/02/15 07:11:31;;;;;;;4.07;3.40;;;;;;;7.38;100.00;99017.59;5033003;28;20199;-79
2022/02/15 07:13:57;;;;;;;4.05;3.22;;;;;;;7.38;100.00;99022.94;5032946;28;20281;-79
2022/02/15 07:16:24;;;;;;;7.13;5.15;;;;;;;7.32;100.00;99026.81;5032308;28;20566;-80
2022/02/15 07:18:52;;;;;;;5.60;3.63;;;;;;;7.30;100.00;99034.94;5032343;28;20281;-77
2022/02/15 07:21:19;;;;;;;6.38;3.78;;;;;;;7.36;100.00;99040.91;5032683;28;20185;-78
2022/02/15 07:23:46;;;;;;;6.78;3.45;;;;;;;7.37;100.00;99045.31;5032266;28;20290;-79
2022/02/15 07:26:12;;;;;;;4.78;4.05;;;;;;;7.35;100.00;99044.53;5033004;28;20285;-81
2022/02/15 07:28:39;;;;;;;4.65;3.85;;;;;;;7.36;100.00;99054.31;5032463;28;20198;-79
2022/02/15 07:31:05;;;;;;;4.63;4.15;;;;;;;7.35;100.00;99050.78;5039341;28;20221;-84
2022/02/15 07:33:32;;;;;;;6.45;4.28;;;;;;;7.40;100.00;99046.03;5037760;28;20205;-79
2022/02/15 07:36:00;;;;;;;7.05;4.78;;;;;;;7.51;100.00;99050.81;5032492;28;20202;-81
2022/02/15 07:38:27;;;;;;;10.80;5.07;;;;;;;7.54;100.00;99058.66;5032646;28;20536;-77
2022/02/15 07:40:53;;;;;;;5.28;4.28;;;;;;;7.43;100.00;99059.25;5031510;28;20200;-79
2022/02/15 07:43:20;;;;;;;6.80;4.45;;;;;;;7.50;100.00;99065.13;5032200;28;20187;-79
2022/02/15 07:45:47;;;;;;;5.22;4.47;;;;;;;7.31;100.00;99082.19;5031795;28;20593;-79
2022/02/15 07:48:14;;;;;;;8.32;4.18;;;;;;;7.25;100.00;99087.88;5031704;28;20620;-78
2022/02/15 07:50:41;;;;;;;5.75;4.78;;;;;;;7.32;100.00;99083.91;5031577;28;20221;-79
2022/02/15 07:53:09;;;;;;;7.25;4.22;;;;;;;7.42;100.00;99092.34;5031819;28;20226;-83
2022/02/15 07:55:36;;;;;;;6.65;4.45;;;;;;;7.41;100.00;99095.09;5033581;28;20229;-81
2022/02/15 07:58:03;;;;;;;7.85;4.25;;;;;;;7.55;100.00;99099.72;5032007;28;20277;-79
2022/02/15 08:00:30;;;;;;;4.70;4.25;;;;;;;7.46;100.00;99091.25;5033436;28;20614;-78
2022/02/15 08:02:57;;;;;;;6.45;5.03;;;;;;;7.40;100.00;99096.91;5031824;28;20194;-79
2022/02/15 08:05:25;;;;;;;7.75;5.07;;;;;;;7.68;100.00;99090.06;5029132;28;20270;-78
2022/02/15 08:07:54;;;;;;;5.82;4.93;;;;;;;7.62;100.00;99087.72;5029581;28;20252;-78
2022/02/15 08:10:23;;;;;;;11.13;5.05;;;;;;;7.58;100.00;99089.72;5025683;28;20183;-78
2022/02/15 08:12:55;;;;;;;6.75;5.10;;;;;;;7.56;100.00;99088.91;5019313;28;20199;-77
2022/02/15 08:15:22;;;;;;;9.05;4.88;;;;;;;7.64;100.00;99081.34;5032193;28;20210;-78
2022/02/15 08:17:48;;;;;;;12.70;5.50;;;;;;;7.64;100.00;99088.50;5032382;28;20228;-77
2022/02/15 08:20:15;;;;;;;6.95;5.38;;;;;;;7.75;100.00;99104.00;5030643;28;20286;-83
2022/02/15 08:22:42;;;;;;;12.45;5.90;;;;;;;7.59;100.00;99102.13;5031708;28;20294;-78
2022/02/15 08:25:09;;;;;;;7.25;5.10;;;;;;;7.68;100.00;99100.78;5031965;28;20277;-79
2022/02/15 08:27:37;;;;;;;11.75;4.78;;;;;;;7.75;100.00;99095.97;5030707;28;20208;-79
2022/02/15 08:30:04;;;;;;;7.95;5.20;;;;;;;7.79;100.00;99103.75;5031887;28;20677;-83
2022/02/15 08:32:31;;;;;;;7.50;4.82;;;;;;;7.83;100.00;99104.47;5032095;28;20658;-79
2022/02/15 08:34:57;;;;;;;11.43;6.05;;;;;;;7.90;100.00;99120.09;5032262;28;20190;-81
2022/02/15 08:37:24;;;;;;;9.60;5.80;;;;;;;8.06;100.00;99124.63;5030462;28;20244;-84
2022/02/15 08:39:51;;;;;;;7.90;5.32;;;;;;;8.00;100.00;99127.66;5031492;28;20623;-80
2022/02/15 08:42:18;;;;;;;5.90;5.13;;;;;;;8.00;100.00;99124.97;5031225;28;20298;-80
2022/02/15 08:44:48;;;;;;;12.25;5.13;;;;;;;8.01;100.00;99122.22;5031809;28;20201;-78
2022/02/15 08:47:16;;;;;;;6.43;5.13;;;;;;;8.10;100.00;99132.41;5026830;28;20182;-80
2022/02/15 08:49:42;;;;;;;5.75;4.60;;;;;;;8.03;100.00;99136.41;5031081;28;20198;-83
2022/02/15 08:52:09;;;;;;;5.07;4.50;;;;;;;7.96;100.00;99137.69;5030239;28;20216;-78
2022/02/15 08:54:36;;;;;;;14.45;5.50;;;;;;;8.02;100.00;99142.69;5031717;28;20767;-81
2022/02/15 08:57:05;;;;;;;8.07;4.65;;;;;;;7.78;100.00;99139.56;5029520;28;20305;-79
2022/02/15 08:59:32;;;;;;;5.50;4.35;;;;;;;7.99;100.00;99137.50;5030271;28;20269;-80
2022/02/15 09:02:00;;;;;;;5.85;5.25;;;;;;;7.92;100.00;99144.16;5032311;28;20287;-77
2022/02/15 09:04:26;;;;;;;7.57;4.85;;;;;;;7.83;100.00;99147.34;5032144;28;20186;-81
2022/02/15 09:06:54;;;;;;;6.63;4.90;;;;;;;7.83;100.00;99147.34;5031554;28;20289;-77
2022/02/15 09:09:21;;;;;;;7.60;4.55;;;;;;;7.97;100.00;99154.63;5024198;28;20274;-77
2022/02/15 09:11:47;;;;;;;8.07;5.70;;;;;;;7.67;100.00;99156.19;5016148;28;20650;-79
2022/02/15 09:14:14;;;;;;;5.30;3.95;;;;;;;7.79;100.00;99162.72;5017144;28;20277;-79
2022/02/15 09:16:41;;;;;;;9.65;4.50;;;;;;;7.94;100.00;99166.38;5028822;28;20589;-80
2022/02/15 09:19:09;;;;;;;6.57;4.22;;;;;;;8.02;100.00;99169.50;5037684;28;20194;-79
2022/02/15 09:21:35;;;;;;;6.45;4.80;;;;;;;8.08;100.00;99177.22;5039264;28;20212;-79
2022/02/15 09:24:03;;;;;;;6.00;4.43;;;;;;;7.84;100.00;99166.00;5018470;28;20228;-77
2022/02/15 09:26:29;;;;;;;6.63;4.90;;;;;;;7.82;100.00;99175.06;5034867;28;20366;-76
2022/02/15 09:28:56;;;;;;;7.43;5.10;;;;;;;7.91;100.00;99175.47;5034149;28;20213;-77
2022/02/15 09:31:24;;;;;;;7.07;5.43;;;;;;;7.98;100.00;99175.97;5025496;28;20729;-77
2022/02/15 09:33:52;;;;;;;9.68;4.78;;;;;;;8.27;100.00;99174.38;5031557;28;20219;-78
2022/02/15 09:36:21;;;;;;;8.07;5.45;;;;;;;8.11;99.96;99177.03;5034352;28;20614;-77
2022/02/15 09:38:47;;;;;;;8.65;5.47;;;;;;;8.09;98.77;99186.97;5034423;28;20645;-80
2022/02/15 09:41:15;;;;;;;9.75;4.70;;;;;;;7.90;97.70;99192.47;5035189;28;20557;-79
2022/02/15 09:43:41;;;;;;;5.05;3.40;;;;;;;7.94;94.23;99182.47;5024359;28;20199;-79
2022/02/15 09:46:11;;;;;;;5.60;3.60;;;;;;;7.79;94.35;99178.78;5015863;28;20206;-77
2022/02/15 09:48:38;;;;;;;6.00;3.78;;;;;;;7.90;91.50;99175.53;5027255;28;20189;-84
2022/02/15 09:51:05;;;;;;;4.97;4.20;;;;;;;7.85;91.49;99189.19;5033106;28;20664;-78
2022/02/15 09:53:33;;;;;;;8.75;3.85;;;;;;;8.03;90.62;99189.16;5032470;28;20649;-79
2022/02/15 09:56:00;;;;;;;6.47;4.20;;;;;;;7.95;90.12;99186.88;5032852;28;20629;-81
2022/02/15 09:58:27;;;;;;;5.88;3.95;;;;;;;8.13;90.43;99190.38;5032671;28;20185;-79
2022/02/15 10:00:54;;;;;;;10.15;4.63;;;;;;;8.25;89.26;99191.50;5032770;28;20204;-82
2022/02/15 10:03:21;;;;;;;11.23;4.82;;;;;;;8.38;87.42;99203.31;5033283;28;20193;-82
2022/02/15 10:05:48;;;;;;;7.93;4.25;;;;;;;8.35;87.88;99204.34;5034627;28;20196;-82
2022/02/15 10:08:15;;;;;;;4.78;3.28;;;;;;;8.39;88.10;99210.41;5034084;28;20206;-82
2022/02/15 10:10:45;;;;;;;6.05;4.20;;;;;;;8.24;88.26;99206.75;5033883;28;20187;-82
2022/02/15 10:13:14;;;;;;;8.98;5.25;;;;;;;8.17;88.63;99212.53;5033600;28;20198;-80
2022/02/15 10:15:44;;;;;;;7.90;4.78;;;;;;;8.45;86.15;99204.72;5034013;28;20194;-81
2022/02/15 10:18:12;;;;;;;4.38;3.28;;;;;;;8.31;83.57;99215.31;5035009;28;20192;-77
2022/02/15 10:20:42;;;;;;;5.75;4.07;;;;;;;8.46;85.75;99222.56;5026541;28;20203;-78
2022/02/15 10:23:14;;;;;;;5.60;4.00;;;;;;;8.53;82.84;99221.25;5022861;28;20676;-91
2022/02/15 10:25:41;;;;;;;8.40;4.22;;;;;;;8.82;80.27;99229.50;5027325;28;20289;-80
2022/02/15 10:28:16;;;;;;;4.00;3.60;;;;;;;8.60;81.41;99229.84;5026700;28;20189;-81
2022/02/15 10:30:48;;;;;;;4.63;3.75;;;;;;;8.89;82.96;99227.34;5020112;28;20233;-79
2022/02/15 10:33:15;;;;;;;5.43;3.67;;;;;;;8.89;82.58;99238.94;5023490;28;20253;-80
2022/02/15 10:35:55;;;;;;;6.68;3.90;;;;;;;8.94;82.38;99238.69;5021599;28;20716;-79
2022/02/15 10:38:30;;;;;;;5.97;3.80;;;;;;;8.92;80.69;99244.13;5025709;28;20349;-79
2022/02/15 10:40:59;;;;;;;6.75;2.83;;;;;;;8.81;77.74;99238.50;5021926;28;20241;-80
2022/02/15 10:43:28;;;;;;;5.20;3.20;;;;;;;8.88;75.04;99250.63;5015428;28;20199;-79
2022/02/15 10:45:54;;;;;;;4.72;2.67;;;;;;;8.90;71.24;99239.81;5014491;28;20196;-81
2022/02/15 10:48:32;;;;;;;6.53;2.00;;;;;;;8.75;71.61;99252.25;5014359;28;20209;-78
2022/02/15 10:50:59;;;;;;;4.65;2.50;;;;;;;8.87;73.33;99253.41;5016092;28;20192;-79
2022/02/15 10:53:25;;;;;;;5.70;2.80;;;;;;;8.93;71.91;99253.94;5022822;28;20234;-79
2022/02/15 10:55:53;;;;;;;3.67;2.42;;;;;;;8.76;70.48;99249.50;5034286;28;20184;-79
2022/02/15 10:58:20;;;;;;;3.08;2.33;;;;;;;8.54;70.60;99257.00;5032468;28;20293;-79
2022/02/15 11:00:50;;;;;;;6.35;2.58;;;;;;;8.52;71.17;99258.91;5034063;28;20639;-79
2022/02/15 11:03:20;;;;;;;2.95;2.40;;;;;;;8.59;70.26;99268.34;5034292;28;20633;-79
2022/02/15 11:05:48;;;;;;;3.92;1.67;;;;;;;8.33;66.01;99256.34;5031164;28;20198;-80
2022/02/15 11:08:15;;;;;;;3.03;2.00;;;;;;;8.12;66.60;99251.19;5022371;28;20222;-80
2022/02/15 11:10:47;;;;;;;5.57;1.88;;;;;;;8.45;64.64;99253.00;5025114;28;20190;-80
2022/02/15 11:13:15;;;;;;;3.67;2.53;;;;;;;8.87;63.18;99254.28;5014344;28;20188;-80
2022/02/15 11:15:42;;;;;;;3.95;2.10;;;;;;;9.03;62.42;99242.66;5027009;28;20275;-79
2022/02/15 11:18:13;;;;;;;5.55;1.92;;;;;;;9.15;62.28;99245.47;5029301;28;20242;-79
2022/02/15 11:20:54;;;;;;;5.85;3.25;;;;;;;9.47;62.23;99255.31;5020155;28;20189;-81
2022/02/15 11:23:23;;;;;;;3.72;2.10;;;;;;;9.56;61.92;99252.06;5028579;28;20189;-80
2022/02/15 11:25:50;;;;;;;5.50;2.80;;;;;;;9.84;61.38;99255.81;5028208;28;20199;-80
2022/02/15 11:28:20;;;;;;;2.40;1.98;;;;;;;9.87;60.72;99256.47;5026262;28;20200;-79
2022/02/15 11:30:52;;;;;;;3.13;2.17;;;;;;;9.73;62.01;99259.16;5031208;28;20327;-80
2022/02/15 11:33:25;;;;;;;5.57;1.98;;;;;;;9.32;62.65;99252.56;5032776;28;20562;-80
2022/02/15 11:35:53;;;;;;;4.60;1.92;;;;;;;9.52;62.67;99256.78;5027408;28;20311;-79
2022/02/15 11:38:20;;;;;;;6.00;2.00;;;;;;;9.62;61.93;99248.16;5025876;28;20298;-79
2022/02/15 11:41:00;;;;;;;3.75;2.50;;;;;;;9.37;63.42;99261.22;5033181;28;20253;-79
2022/02/15 11:43:27;;;;;;;2.80;2.10;;;;;;;9.42;63.74;99258.28;5033093;28;20194;-80
2022/02/15 11:45:54;;;;;;;4.22;2.45;;;;;;;9.22;64.35;99258.56;5033358;28;20623;-79
2022/02/15 11:48:21;;;;;;;6.10;2.80;;;;;;;9.39;64.54;99255.78;5032956;28;20279;-80
2022/02/15 11:50:51;;;;;;;3.33;1.63;;;;;;;9.54;63.20;99259.34;5028093;28;20297;-79
2022/02/15 11:53:20;;;;;;;7.57;2.35;;;;;;;9.13;64.94;99252.75;5033579;28;20237;-77
2022/02/15 11:55:49;;;;;;;4.80;2.90;;;;;;;8.96;67.92;99259.13;5025127;28;20278;-78
2022/02/15 11:58:16;;;;;;;5.40;2.35;;;;;;;8.71;68.84;99258.78;5025224;28;20982;-77
2022/02/15 12:00:44;;;;;;;4.00;2.10;;;;;;;8.85;66.24;99256.16;5024815;28;20853;-77
2022/02/15 12:03:16;;;;;;;4.35;2.53;;;;;;;9.12;63.90;99247.50;5031812;28;20297;-77
2022/02/15 12:05:45;;;;;;;2.30;1.90;;;;;;;9.27;58.96;99261.84;5031099;28;20260;-76
2022/02/15 12:08:21;;;;;;;4.80;1.83;;;;;;;9.29;60.78;99244.69;5028347;28;20222;-80
2022/02/15 12:10:48;;;;;;;3.55;2.00;;;;;;;9.38;61.84;99254.03;5031467;28;20572;-79
2022/02/15 12:13:15;;;;;;;4.55;2.20;;;;;;;9.62;60.78;99253.53;5031646;28;20669;-79
2022/02/15 12:15:46;;;;;;;2.67;1.80;;;;;;;9.61;60.96;99250.00;5032441;28;20211;-78
2022/02/15 12:18:13;;;;;;;3.20;2.47;;;;;;;9.46;62.30;99251.75;5023924;28;20347;-78
2022/02/15 12:20:41;;;;;;;3.35;2.00;;;;;;;9.29;63.30;99247.38;5051933;28;20374;-79
2022/02/15 12:23:08;;;;;;;6.43;1.98;;;;;;;9.31;63.83;99264.25;5035935;28;20216;-79
2022/02/15 12:25:45;;;;;;;4.03;2.00;;;;;;;8.96;66.63;99247.50;5031885;28;20295;-80
2022/02/15 12:28:13;;;;;;;3.90;2.25;;;;;;;8.83;66.21;99246.47;5035489;28;20609;-78
2022/02/15 12:30:43;;;;;;;3.97;2.10;;;;;;;9.11;63.41;99235.00;5051368;28;20217;-78
2022/02/15 12:33:10;;;;;;;2.30;1.70;;;;;;;9.20;63.29;99245.22;5047494;28;20192;-79
2022/02/15 12:35:37;;;;;;;3.80;1.90;;;;;;;9.58;60.27;99240.28;5030994;28;20216;-79
2022/02/15 12:38:05;;;;;;;4.95;2.90;;;;;;;9.65;60.18;99227.31;5031159;28;20292;-79
2022/02/15 12:40:31;;;;;;;5.32;2.55;;;;;;;9.77;59.68;99217.69;5040983;28;20200;-79
2022/02/15 12:42:59;;;;;;;4.47;1.75;;;;;;;9.63;60.80;99214.94;5049534;28;20315;-79
2022/02/15 12:45:27;;;;;;;2.20;2.00;;;;;;;9.85;59.60;99203.75;5051285;28;20223;-79
2022/02/15 12:47:54;;;;;;;7.80;2.30;;;;;;;10.06;58.95;99197.03;5037698;28;20262;-79
2022/02/15 12:50:21;;;;;;;3.97;2.00;;;;;;;9.66;61.02;99193.28;5048110;28;20188;-79
2022/02/15 12:52:49;;;;;;;3.38;1.90;;;;;;;9.78;59.36;99198.75;5035131;28;20212;-79
2022/02/15 12:55:18;;;;;;;6.97;2.78;;;;;;;9.83;57.77;99198.47;5051185;28;20673;-79
2022/02/15 12:57:48;;;;;;;4.60;2.15;;;;;;;9.47;59.06;99188.97;5034856;28;20295;-80
2022/02/15 13:00:18;;;;;;;2.92;1.90;;;;;;;9.29;59.13;99193.63;5031883;28;20649;-79
2022/02/15 13:02:49;;;;;;;2.70;2.13;;;;;;;9.67;58.69;99189.63;5032620;28;20191;-79
2022/02/15 13:05:21;;;;;;;2.65;1.80;;;;;;;9.93;57.90;99180.81;5030595;28;20263;-78
2022/02/15 13:07:49;;;;;;;4.95;3.00;;;;;;;9.97;57.46;99189.53;5030810;28;20192;-82
2022/02/15 13:10:21;;;;;;;5.55;1.75;;;;;;;9.99;54.46;99195.69;5032250;28;20606;-80
2022/02/15 13:12:48;;;;;;;3.35;1.67;;;;;;;10.26;54.65;99184.16;5031058;28;20599;-83
2022/02/15 13:15:18;;;;;;;3.55;2.35;;;;;;;10.28;54.72;99185.78;5031890;28;20665;-87
2022/02/15 13:17:52;;;;;;;5.95;1.73;;;;;;;10.25;54.81;99190.53;5031253;28;20292;-80
2022/02/15 13:20:21;;;;;;;3.85;1.77;;;;;;;10.32;53.40;99176.59;5030613;28;20200;-84
2022/02/15 13:22:50;;;;;;;2.50;2.30;;;;;;;10.79;50.05;99185.28;5031177;28;20275;-81
2022/02/15 13:25:18;;;;;;;2.58;2.13;;;;;;;10.61;50.46;99190.03;5032218;28;20278;-80
2022/02/15 13:27:48;;;;;;;2.33;1.60;;;;;;;10.54;50.06;99197.63;5030870;28;20202;-80
2022/02/15 13:30:22;;;;;;;2.55;1.83;;;;;;;10.29;49.33;99187.56;5031294;28;20208;-80
2022/02/15 13:32:59;;;;;;;2.45;1.55;;;;;;;10.62;50.00;99192.59;5031821;28;20559;-81
2022/02/15 13:35:26;;;;;;;4.57;1.70;;;;;;;10.59;50.05;99195.50;5030192;28;20284;-79
2022/02/15 13:37:56;;;;;;;5.38;3.55;;;;;;;10.24;50.64;99189.63;5030251;28;20249;-80
2022/02/15 13:40:24;;;;;;;4.05;2.55;;;;;;;10.03;50.93;99195.41;5030135;28;20236;-80
2022/02/15 13:42:50;;;;;;;2.60;1.40;;;;;;;9.57;51.24;99194.69;5030392;28;20276;-78
2022/02/15 13:45:19;;;;;;;8.68;2.00;;;;;;;9.45;52.19;99198.09;5029147;28;20283;-80
2022/02/15 13:47:45;;;;;;;8.70;3.35;;;;;;;9.24;51.88;99198.41;5030083;28;20616;-78
2022/02/15 13:50:12;;;;;;;2.45;1.52;;;;;;;9.04;53.21;99196.03;5030037;28;20211;-78
2022/02/15 13:52:39;;;;;;;2.83;1.48;;;;;;;9.38;52.10;99182.38;5036116;28;20204;-78
2022/02/15 13:55:07;;;;;;;4.63;1.33;;;;;;;9.63;51.64;99188.06;5034612;28;20263;-80
2022/02/15 13:57:34;;;;;;;4.68;1.90;;;;;;;10.24;50.27;99170.78;5034227;28;20216;-79
2022/02/15 14:00:01;;;;;;;2.90;1.35;;;;;;;10.16;50.28;99165.91;5034156;28;20586;-79
2022/02/15 14:02:29;;;;;;;2.28;1.30;;;;;;;10.43;50.23;99167.84;5033477;28;20275;-80
2022/02/15 14:04:55;;;;;;;3.17;1.50;;;;;;;10.80;49.58;99171.69;5034180;28;20288;-80
2022/02/15 14:07:23;;;;;;;2.60;1.70;;;;;;;11.41;48.64;99171.22;5033705;28;20201;-81
2022/02/15 14:09:50;;;;;;;3.10;1.80;;;;;;;11.49;47.68;99160.81;5033365;28;20285;-79
2022/02/15 14:12:19;;;;;;;6.35;2.20;;;;;;;11.92;46.86;99159.66;5033026;28;20718;-81
2022/02/15 14:14:52;;;;;;;4.57;1.42;;;;;;;11.88;46.79;99178.75;5034421;28;20237;-81
2022/02/15 14:20:07;;;;;;;3.75;2.15;;;;;;;11.95;45.68;99181.03;5033484;28;20201;-80
2022/02/15 14:22:34;;;;;;;6.45;2.47;;;;;;;12.33;44.47;99180.16;5033299;28;20190;-82
2022/02/15 14:25:01;;;;;;;4.50;1.65;;;;;;;12.60;42.53;99172.72;5025223;28;20228;-80
2022/02/15 14:27:28;;;;;;;4.82;2.10;;;;;;;12.49;43.15;99175.34;5043397;28;20688;-84
2022/02/15 14:29:54;;;;;;;3.33;1.60;;;;;;;12.70;42.79;99179.16;5035698;28;20615;-81
2022/02/15 14:32:21;;;;;;;2.97;1.58;;;;;;;12.71;42.95;99186.31;5043964;28;20290;-84
2022/02/15 14:34:48;;;;;;;3.50;1.80;;;;;;;12.96;43.00;99170.09;5034326;28;20194;-82
2022/02/15 14:37:16;;;;;;;4.38;2.10;;;;;;;12.38;43.57;99172.56;5036236;28;20274;-85
2022/02/15 14:39:42;;;;;;;2.88;1.90;;;;;;;11.82;45.52;99179.16;5033976;28;20198;-82
2022/02/15 14:42:10;;;;;;;3.60;1.52;;;;;;;11.00;47.37;99182.97;5034011;28;20269;-84
2022/02/15 14:44:37;;;;;;;3.72;1.55;;;;;;;10.64;48.35;99179.03;5037664;28;20717;-79
2022/02/15 14:47:05;;;;;;;7.60;1.77;;;;;;;10.20;49.86;99185.44;5037685;28;20599;-79
2022/02/15 14:49:32;;;;;;;2.42;1.80;;;;;;;10.19;49.89;99179.16;5033685;28;20192;-78
2022/02/15 14:52:00;;;;;;;3.45;1.58;;;;;;;10.26;49.85;99187.72;5033776;28;20219;-85
2022/02/15 14:54:28;;;;;;;6.72;1.50;;;;;;;10.10;49.80;99201.25;5033362;28;20237;-79
2022/02/15 14:56:55;;;;;;;2.90;1.73;;;;;;;10.08;50.47;99187.03;5033099;28;20593;-81
2022/02/15 14:59:21;;;;;;;4.60;1.80;;;;;;;10.07;50.19;99184.47;5033878;28;20306;-80
2022/02/15 15:01:48;;;;;;;3.08;1.40;;;;;;;9.88;50.83;99198.19;5033716;28;20271;-78
2022/02/15 15:04:15;;;;;;;2.40;1.52;;;;;;;9.96;50.43;99198.56;5037186;28;20196;-79
2022/02/15 15:06:42;;;;;;;5.88;1.88;;;;;;;9.98;50.08;99202.91;5022300;28;20291;-78
2022/02/15 15:09:11;;;;;;;2.55;1.35;;;;;;;9.99;49.76;99199.28;5032870;28;20611;-78
2022/02/15 15:11:39;;;;;;;2.30;1.90;;;;;;;9.90;50.62;99199.81;5039850;28;20192;-78
2022/02/15 15:14:06;;;;;;;3.03;1.65;;;;;;;9.70;51.56;99200.16;5032498;28;20224;-78
2022/02/15 15:16:32;;;;;;;3.63;1.80;;;;;;;9.74;52.38;99204.41;5033524;28;20278;-78
2022/02/15 15:18:59;;;;;;;2.20;1.65;;;;;;;9.72;52.47;99193.75;5027556;28;20611;-77
2022/02/15 15:21:26;;;;;;;5.70;1.80;;;;;;;9.80;52.74;99201.34;5033191;28;20294;-79
2022/02/15 15:23:53;;;;;;;4.82;1.83;;;;;;;9.66;52.70;99206.72;5031975;28;20247;-77
2022/02/15 15:26:20;;;;;;;3.30;1.60;;;;;;;9.76;52.43;99206.03;5032632;28;20231;-77
2022/02/15 15:28:48;;;;;;;2.38;1.60;;;;;;;9.76;52.11;99192.59;5032401;28;20520;-79
2022/02/15 15:31:14;;;;;;;3.58;2.25;;;;;;;9.80;52.28;99190.59;5033636;28;20203;-78
2022/02/15 15:33:41;;;;;;;2.10;1.50;;;;;;;9.89;52.03;99189.16;5044686;28;20314;-79
2022/02/15 15:36:08;;;;;;;4.50;1.60;;;;;;;9.52;54.08;99186.00;5042394;28;20205;-78
2022/02/15 15:38:34;;;;;;;3.97;1.63;;;;;;;9.44;54.99;99199.94;5035759;28;20669;-78
2022/02/15 15:41:01;;;;;;;2.10;1.70;;;;;;;9.29;55.80;99204.38;5032607;28;20211;-78
2022/02/15 15:43:28;;;;;;;3.00;1.85;;;;;;;9.29;56.32;99211.56;5031999;28;20288;-78
2022/02/15 15:45:56;;;;;;;2.78;1.83;;;;;;;9.32;56.47;99206.03;5031291;28;20295;-78
2022/02/15 15:48:23;;;;;;;3.55;1.70;;;;;;;9.39;56.08;99205.56;5034832;28;20544;-78
2022/02/15 15:50:50;;;;;;;2.70;2.00;;;;;;;9.43;55.82;99206.28;5031682;28;20528;-78
2022/02/15 15:53:17;;;;;;;2.05;1.40;;;;;;;9.37;55.75;99198.56;5031246;28;20282;-77
2022/02/15 15:55:43;;;;;;;10.65;2.15;;;;;;;9.55;55.67;99215.41;5031971;28;20206;-78
2022/02/15 15:58:12;;;;;;;4.75;2.53;;;;;;;9.70;55.31;99202.84;5030449;28;20564;-79
2022/02/15 16:00:40;;;;;;;2.75;1.83;;;;;;;9.60;55.79;99205.25;5031557;28;20224;-79
2022/02/15 16:03:09;;;;;;;3.75;2.20;;;;;;;9.60;55.97;99189.13;5031401;28;20193;-79
2022/02/15 16:05:36;;;;;;;5.07;2.05;;;;;;;9.69;55.81;99193.06;5031492;28;20189;-78
2022/02/15 16:08:03;;;;;;;4.60;2.20;;;;;;;9.54;55.61;99200.22;5031689;28;20521;-78
2022/02/15 16:10:29;;;;;;;4.53;2.40;;;;;;;9.55;56.33;99193.91;5031842;28;20209;-78
2022/02/15 16:12:56;;;;;;;5.82;2.17;;;;;;;9.47;56.97;99193.50;5031703;28;20193;-77
2022/02/15 16:15:23;;;;;;;4.82;2.60;;;;;;;9.22;57.68;99194.09;5031577;28;20211;-77
2022/02/15 16:17:49;;;;;;;4.93;2.30;;;;;;;9.19;57.75;99193.31;5030766;28;20298;-78
2022/02/15 16:20:18;;;;;;;3.75;2.38;;;;;;;9.12;58.62;99196.47;5031868;28;20195;-78
2022/02/15 16:22:45;;;;;;;5.05;3.10;;;;;;;8.99;59.38;99185.56;5031726;28;20200;-78
2022/02/15 16:25:14;;;;;;;5.55;2.30;;;;;;;9.05;58.87;99184.34;5017772;28;20205;-79